sensor_id;sensor_type;location;lat;lon;timestamp;P1;durP1;ratioP1;P2;durP2;ratioP2
14282;SDS011;7225;59.282;18.344;2022-12-18T00:00:02;8.87;;;5.10;;
14282;SDS011;7225;59.282;18.344;2022-12-18T00:02:30;8.50;;;5.67;;
14282;SDS011;7225;59.282;18.344;2022-12-18T00:05:00;8.20;;;5.47;;
14282;SDS011;7225;59.282;18.344;2022-12-18T00:07:30;12.43;;;5.67;;
14282;SDS011;7225;59.282;18.344;2022-12-18T00:09:58;9.03;;;4.93;;
14282;SDS011;7225;59.282;18.344;2022-12-18T00:12:26;8.50;;;4.97;;
14282;SDS011;7225;59.282;18.344;2022-12-18T00:14:56;9.93;;;5.27;;
14282;SDS011;7225;59.282;18.344;2022-12-18T00:17:24;8.97;;;4.80;;
14282;SDS011;7225;59.282;18.344;2022-12-18T00:19:52;7.73;;;5.53;;
14282;SDS011;7225;59.282;18.344;2022-12-18T00:22:20;8.53;;;5.30;;
14282;SDS011;7225;59.282;18.344;2022-12-18T00:24:49;8.43;;;5.63;;
14282;SDS011;7225;59.282;18.344;2022-12-18T00:27:17;7.27;;;4.90;;
14282;SDS011;7225;59.282;18.344;2022-12-18T00:29:47;10.00;;;5.53;;
14282;SDS011;7225;59.282;18.344;2022-12-18T00:32:17;8.33;;;5.37;;
14282;SDS011;7225;59.282;18.344;2022-12-18T00:34:45;7.47;;;4.77;;
14282;SDS011;7225;59.282;18.344;2022-12-18T00:37:13;9.23;;;5.90;;
14282;SDS011;7225;59.282;18.344;2022-12-18T00:39:47;8.63;;;6.10;;
14282;SDS011;7225;59.282;18.344;2022-12-18T00:42:15;9.13;;;5.40;;
14282;SDS011;7225;59.282;18.344;2022-12-18T00:45:02;9.87;;;5.60;;
14282;SDS011;7225;59.282;18.344;2022-12-18T00:47:40;10.00;;;6.00;;
14282;SDS011;7225;59.282;18.344;2022-12-18T00:50:07;10.17;;;5.57;;
14282;SDS011;7225;59.282;18.344;2022-12-18T00:52:36;7.10;;;5.10;;
14282;SDS011;7225;59.282;18.344;2022-12-18T00:55:09;8.47;;;5.67;;
14282;SDS011;7225;59.282;18.344;2022-12-18T00:57:39;11.13;;;5.33;;
14282;SDS011;7225;59.282;18.344;2022-12-18T01:00:11;10.40;;;5.13;;
14282;SDS011;7225;59.282;18.344;2022-12-18T01:02:41;12.97;;;5.83;;
14282;SDS011;7225;59.282;18.344;2022-12-18T01:05:12;9.10;;;5.67;;
14282;SDS011;7225;59.282;18.344;2022-12-18T01:07:40;8.63;;;5.17;;
14282;SDS011;7225;59.282;18.344;2022-12-18T01:10:10;7.40;;;4.83;;
14282;SDS011;7225;59.282;18.344;2022-12-18T01:12:39;9.90;;;5.10;;
14282;SDS011;7225;59.282;18.344;2022-12-18T01:15:08;8.57;;;5.27;;
14282;SDS011;7225;59.282;18.344;2022-12-18T01:17:39;11.10;;;5.73;;
14282;SDS011;7225;59.282;18.344;2022-12-18T01:20:08;9.83;;;5.23;;
14282;SDS011;7225;59.282;18.344;2022-12-18T01:22:39;7.20;;;4.83;;
14282;SDS011;7225;59.282;18.344;2022-12-18T01:25:07;7.83;;;5.17;;
14282;SDS011;7225;59.282;18.344;2022-12-18T01:27:35;7.90;;;4.27;;
14282;SDS011;7225;59.282;18.344;2022-12-18T01:30:03;9.20;;;5.43;;
14282;SDS011;7225;59.282;18.344;2022-12-18T01:32:32;7.87;;;4.77;;
14282;SDS011;7225;59.282;18.344;2022-12-18T01:35:00;8.60;;;4.80;;
14282;SDS011;7225;59.282;18.344;2022-12-18T01:37:27;7.03;;;4.13;;
14282;SDS011;7225;59.282;18.344;2022-12-18T01:39:56;11.43;;;5.37;;
14282;SDS011;7225;59.282;18.344;2022-12-18T01:42:24;7.20;;;4.57;;
14282;SDS011;7225;59.282;18.344;2022-12-18T01:50:16;7.87;;;4.87;;
14282;SDS011;7225;59.282;18.344;2022-12-18T01:52:58;9.67;;;4.97;;
14282;SDS011;7225;59.282;18.344;2022-12-18T01:55:28;8.67;;;5.97;;
14282;SDS011;7225;59.282;18.344;2022-12-18T01:57:58;6.10;;;4.10;;
14282;SDS011;7225;59.282;18.344;2022-12-18T02:00:28;9.17;;;4.97;;
14282;SDS011;7225;59.282;18.344;2022-12-18T02:02:57;10.07;;;4.93;;
14282;SDS011;7225;59.282;18.344;2022-12-18T02:08:35;7.33;;;5.03;;
14282;SDS011;7225;59.282;18.344;2022-12-18T02:16:43;10.60;;;5.03;;
14282;SDS011;7225;59.282;18.344;2022-12-18T02:19:39;8.43;;;5.20;;
14282;SDS011;7225;59.282;18.344;2022-12-18T02:25:05;9.13;;;5.57;;
14282;SDS011;7225;59.282;18.344;2022-12-18T02:27:53;8.40;;;5.23;;
14282;SDS011;7225;59.282;18.344;2022-12-18T02:30:26;9.47;;;5.90;;
14282;SDS011;7225;59.282;18.344;2022-12-18T02:32:56;9.50;;;5.67;;
14282;SDS011;7225;59.282;18.344;2022-12-18T02:35:27;8.30;;;5.57;;
14282;SDS011;7225;59.282;18.344;2022-12-18T02:37:58;10.93;;;5.67;;
14282;SDS011;7225;59.282;18.344;2022-12-18T02:40:28;7.63;;;4.47;;
14282;SDS011;7225;59.282;18.344;2022-12-18T02:43:10;10.90;;;5.60;;
14282;SDS011;7225;59.282;18.344;2022-12-18T02:45:48;10.43;;;6.30;;
14282;SDS011;7225;59.282;18.344;2022-12-18T02:48:17;8.63;;;5.83;;
14282;SDS011;7225;59.282;18.344;2022-12-18T02:50:55;8.77;;;5.13;;
14282;SDS011;7225;59.282;18.344;2022-12-18T02:53:44;8.33;;;5.07;;
14282;SDS011;7225;59.282;18.344;2022-12-18T02:56:27;6.20;;;5.07;;
14282;SDS011;7225;59.282;18.344;2022-12-18T02:59:14;9.37;;;5.90;;
14282;SDS011;7225;59.282;18.344;2022-12-18T03:01:55;9.80;;;4.97;;
14282;SDS011;7225;59.282;18.344;2022-12-18T03:04:42;12.83;;;5.20;;
14282;SDS011;7225;59.282;18.344;2022-12-18T03:07:19;6.30;;;5.00;;
14282;SDS011;7225;59.282;18.344;2022-12-18T03:09:53;7.00;;;5.00;;
14282;SDS011;7225;59.282;18.344;2022-12-18T03:12:30;7.80;;;5.33;;
14282;SDS011;7225;59.282;18.344;2022-12-18T03:18:06;9.30;;;5.53;;
14282;SDS011;7225;59.282;18.344;2022-12-18T03:20:37;8.20;;;4.43;;
14282;SDS011;7225;59.282;18.344;2022-12-18T03:23:14;10.30;;;4.90;;
14282;SDS011;7225;59.282;18.344;2022-12-18T03:25:46;6.77;;;4.60;;
14282;SDS011;7225;59.282;18.344;2022-12-18T03:28:20;9.57;;;4.80;;
14282;SDS011;7225;59.282;18.344;2022-12-18T03:30:50;9.60;;;5.90;;
14282;SDS011;7225;59.282;18.344;2022-12-18T03:33:27;8.33;;;5.07;;
14282;SDS011;7225;59.282;18.344;2022-12-18T03:36:02;9.90;;;5.07;;
14282;SDS011;7225;59.282;18.344;2022-12-18T03:38:30;7.87;;;5.53;;
14282;SDS011;7225;59.282;18.344;2022-12-18T03:46:15;7.33;;;5.10;;
14282;SDS011;7225;59.282;18.344;2022-12-18T03:48:53;7.47;;;4.97;;
14282;SDS011;7225;59.282;18.344;2022-12-18T03:51:37;6.97;;;4.23;;
14282;SDS011;7225;59.282;18.344;2022-12-18T03:54:10;8.10;;;4.87;;
14282;SDS011;7225;59.282;18.344;2022-12-18T03:56:42;10.27;;;5.07;;
14282;SDS011;7225;59.282;18.344;2022-12-18T03:59:17;8.10;;;4.83;;
14282;SDS011;7225;59.282;18.344;2022-12-18T04:01:47;8.33;;;5.30;;
14282;SDS011;7225;59.282;18.344;2022-12-18T04:04:17;7.13;;;4.67;;
14282;SDS011;7225;59.282;18.344;2022-12-18T04:06:47;8.60;;;5.17;;
14282;SDS011;7225;59.282;18.344;2022-12-18T04:09:16;9.80;;;4.67;;
14282;SDS011;7225;59.282;18.344;2022-12-18T04:11:46;7.43;;;4.73;;
14282;SDS011;7225;59.282;18.344;2022-12-18T04:14:14;7.87;;;4.37;;
14282;SDS011;7225;59.282;18.344;2022-12-18T04:16:45;6.63;;;4.90;;
14282;SDS011;7225;59.282;18.344;2022-12-18T04:19:15;8.40;;;4.77;;
14282;SDS011;7225;59.282;18.344;2022-12-18T04:21:43;6.50;;;5.07;;
14282;SDS011;7225;59.282;18.344;2022-12-18T04:24:10;6.00;;;4.70;;
14282;SDS011;7225;59.282;18.344;2022-12-18T04:26:37;7.43;;;4.87;;
14282;SDS011;7225;59.282;18.344;2022-12-18T04:29:06;9.47;;;5.23;;
14282;SDS011;7225;59.282;18.344;2022-12-18T04:31:37;6.67;;;4.57;;
14282;SDS011;7225;59.282;18.344;2022-12-18T04:34:04;7.53;;;5.03;;
14282;SDS011;7225;59.282;18.344;2022-12-18T04:36:32;10.07;;;4.90;;
14282;SDS011;7225;59.282;18.344;2022-12-18T04:39:00;6.70;;;4.57;;
14282;SDS011;7225;59.282;18.344;2022-12-18T04:41:28;8.17;;;4.63;;
14282;SDS011;7225;59.282;18.344;2022-12-18T04:43:56;6.53;;;4.27;;
14282;SDS011;7225;59.282;18.344;2022-12-18T04:46:25;6.97;;;4.93;;
14282;SDS011;7225;59.282;18.344;2022-12-18T04:48:54;9.00;;;5.23;;
14282;SDS011;7225;59.282;18.344;2022-12-18T04:51:22;7.03;;;4.80;;
14282;SDS011;7225;59.282;18.344;2022-12-18T04:53:53;8.73;;;4.87;;
14282;SDS011;7225;59.282;18.344;2022-12-18T04:56:23;6.67;;;4.77;;
14282;SDS011;7225;59.282;18.344;2022-12-18T04:58:51;7.77;;;4.83;;
14282;SDS011;7225;59.282;18.344;2022-12-18T05:01:19;8.03;;;5.00;;
14282;SDS011;7225;59.282;18.344;2022-12-18T05:03:46;7.27;;;5.37;;
14282;SDS011;7225;59.282;18.344;2022-12-18T05:06:14;7.50;;;5.20;;
14282;SDS011;7225;59.282;18.344;2022-12-18T05:08:44;7.57;;;4.63;;
14282;SDS011;7225;59.282;18.344;2022-12-18T05:11:12;8.03;;;5.00;;
14282;SDS011;7225;59.282;18.344;2022-12-18T05:13:42;8.10;;;5.13;;
14282;SDS011;7225;59.282;18.344;2022-12-18T05:16:10;8.67;;;5.50;;
14282;SDS011;7225;59.282;18.344;2022-12-18T05:18:39;10.10;;;5.50;;
14282;SDS011;7225;59.282;18.344;2022-12-18T05:21:07;9.83;;;4.40;;
14282;SDS011;7225;59.282;18.344;2022-12-18T05:23:35;7.33;;;4.47;;
14282;SDS011;7225;59.282;18.344;2022-12-18T05:26:05;5.80;;;4.30;;
14282;SDS011;7225;59.282;18.344;2022-12-18T05:28:36;6.83;;;3.83;;
14282;SDS011;7225;59.282;18.344;2022-12-18T05:31:04;7.77;;;4.97;;
14282;SDS011;7225;59.282;18.344;2022-12-18T05:33:34;7.93;;;5.63;;
14282;SDS011;7225;59.282;18.344;2022-12-18T05:36:04;8.00;;;5.10;;
14282;SDS011;7225;59.282;18.344;2022-12-18T05:38:34;8.77;;;5.40;;
14282;SDS011;7225;59.282;18.344;2022-12-18T05:41:04;6.87;;;4.80;;
14282;SDS011;7225;59.282;18.344;2022-12-18T05:43:34;10.47;;;5.37;;
14282;SDS011;7225;59.282;18.344;2022-12-18T05:46:07;5.93;;;4.50;;
14282;SDS011;7225;59.282;18.344;2022-12-18T05:48:41;8.60;;;5.50;;
14282;SDS011;7225;59.282;18.344;2022-12-18T05:51:11;6.63;;;4.80;;
14282;SDS011;7225;59.282;18.344;2022-12-18T05:53:42;10.93;;;5.90;;
14282;SDS011;7225;59.282;18.344;2022-12-18T05:56:13;8.03;;;5.03;;
14282;SDS011;7225;59.282;18.344;2022-12-18T05:58:46;5.83;;;3.00;;
14282;SDS011;7225;59.282;18.344;2022-12-18T06:01:18;7.10;;;4.70;;
14282;SDS011;7225;59.282;18.344;2022-12-18T06:03:51;7.90;;;4.63;;
14282;SDS011;7225;59.282;18.344;2022-12-18T06:06:20;8.37;;;5.47;;
14282;SDS011;7225;59.282;18.344;2022-12-18T06:08:52;8.43;;;5.47;;
14282;SDS011;7225;59.282;18.344;2022-12-18T06:11:20;7.07;;;5.10;;
14282;SDS011;7225;59.282;18.344;2022-12-18T06:13:50;9.13;;;5.63;;
14282;SDS011;7225;59.282;18.344;2022-12-18T06:16:27;11.20;;;5.87;;
14282;SDS011;7225;59.282;18.344;2022-12-18T06:18:56;6.63;;;3.83;;
14282;SDS011;7225;59.282;18.344;2022-12-18T06:21:26;7.47;;;5.43;;
14282;SDS011;7225;59.282;18.344;2022-12-18T06:23:55;9.53;;;6.00;;
14282;SDS011;7225;59.282;18.344;2022-12-18T06:26:24;8.37;;;5.37;;
14282;SDS011;7225;59.282;18.344;2022-12-18T06:28:55;7.13;;;4.70;;
14282;SDS011;7225;59.282;18.344;2022-12-18T06:31:25;6.80;;;4.77;;
14282;SDS011;7225;59.282;18.344;2022-12-18T06:33:52;7.20;;;4.07;;
14282;SDS011;7225;59.282;18.344;2022-12-18T06:36:20;5.93;;;3.93;;
14282;SDS011;7225;59.282;18.344;2022-12-18T06:38:48;8.30;;;4.70;;
14282;SDS011;7225;59.282;18.344;2022-12-18T06:41:17;8.80;;;5.07;;
14282;SDS011;7225;59.282;18.344;2022-12-18T06:43:47;10.03;;;4.43;;
14282;SDS011;7225;59.282;18.344;2022-12-18T06:46:15;8.53;;;4.60;;
14282;SDS011;7225;59.282;18.344;2022-12-18T06:48:48;10.37;;;4.83;;
14282;SDS011;7225;59.282;18.344;2022-12-18T06:51:17;8.30;;;4.77;;
14282;SDS011;7225;59.282;18.344;2022-12-18T06:53:46;8.60;;;4.77;;
14282;SDS011;7225;59.282;18.344;2022-12-18T06:56:14;8.10;;;4.43;;
14282;SDS011;7225;59.282;18.344;2022-12-18T06:58:43;8.17;;;4.70;;
14282;SDS011;7225;59.282;18.344;2022-12-18T07:01:12;7.90;;;5.13;;
14282;SDS011;7225;59.282;18.344;2022-12-18T07:03:40;9.33;;;5.20;;
14282;SDS011;7225;59.282;18.344;2022-12-18T07:06:16;9.60;;;5.70;;
14282;SDS011;7225;59.282;18.344;2022-12-18T07:08:47;9.67;;;5.60;;
14282;SDS011;7225;59.282;18.344;2022-12-18T07:11:15;7.47;;;4.90;;
14282;SDS011;7225;59.282;18.344;2022-12-18T07:13:45;8.07;;;5.33;;
14282;SDS011;7225;59.282;18.344;2022-12-18T07:16:15;7.83;;;5.20;;
14282;SDS011;7225;59.282;18.344;2022-12-18T07:18:50;10.10;;;5.57;;
14282;SDS011;7225;59.282;18.344;2022-12-18T07:21:19;10.33;;;5.37;;
14282;SDS011;7225;59.282;18.344;2022-12-18T07:23:47;9.73;;;5.73;;
14282;SDS011;7225;59.282;18.344;2022-12-18T07:26:18;8.63;;;4.83;;
14282;SDS011;7225;59.282;18.344;2022-12-18T07:28:48;9.90;;;4.80;;
14282;SDS011;7225;59.282;18.344;2022-12-18T07:31:18;8.20;;;5.03;;
14282;SDS011;7225;59.282;18.344;2022-12-18T07:33:48;7.50;;;5.27;;
14282;SDS011;7225;59.282;18.344;2022-12-18T07:36:19;10.00;;;5.93;;
14282;SDS011;7225;59.282;18.344;2022-12-18T07:38:50;10.10;;;5.83;;
14282;SDS011;7225;59.282;18.344;2022-12-18T07:41:21;10.90;;;6.23;;
14282;SDS011;7225;59.282;18.344;2022-12-18T07:43:49;8.67;;;5.57;;
14282;SDS011;7225;59.282;18.344;2022-12-18T07:46:17;9.13;;;5.53;;
14282;SDS011;7225;59.282;18.344;2022-12-18T07:48:44;10.77;;;5.37;;
14282;SDS011;7225;59.282;18.344;2022-12-18T07:51:17;7.70;;;4.67;;
14282;SDS011;7225;59.282;18.344;2022-12-18T07:53:45;9.03;;;5.60;;
14282;SDS011;7225;59.282;18.344;2022-12-18T07:56:20;10.33;;;5.83;;
14282;SDS011;7225;59.282;18.344;2022-12-18T07:58:54;9.87;;;6.27;;
14282;SDS011;7225;59.282;18.344;2022-12-18T08:01:21;8.07;;;5.17;;
14282;SDS011;7225;59.282;18.344;2022-12-18T08:03:52;11.13;;;5.80;;
14282;SDS011;7225;59.282;18.344;2022-12-18T08:06:21;11.83;;;6.17;;
14282;SDS011;7225;59.282;18.344;2022-12-18T08:08:54;11.27;;;5.70;;
14282;SDS011;7225;59.282;18.344;2022-12-18T08:11:24;10.73;;;6.23;;
14282;SDS011;7225;59.282;18.344;2022-12-18T08:13:52;9.93;;;6.17;;
14282;SDS011;7225;59.282;18.344;2022-12-18T08:16:21;9.03;;;6.07;;
14282;SDS011;7225;59.282;18.344;2022-12-18T08:18:51;11.17;;;5.87;;
14282;SDS011;7225;59.282;18.344;2022-12-18T08:21:20;9.43;;;5.73;;
14282;SDS011;7225;59.282;18.344;2022-12-18T08:23:54;10.00;;;6.57;;
14282;SDS011;7225;59.282;18.344;2022-12-18T08:26:24;11.40;;;7.67;;
14282;SDS011;7225;59.282;18.344;2022-12-18T08:28:55;13.37;;;6.90;;
14282;SDS011;7225;59.282;18.344;2022-12-18T08:31:28;10.13;;;6.30;;
14282;SDS011;7225;59.282;18.344;2022-12-18T08:33:57;10.23;;;6.60;;
14282;SDS011;7225;59.282;18.344;2022-12-18T08:36:25;10.40;;;6.57;;
14282;SDS011;7225;59.282;18.344;2022-12-18T08:38:54;10.57;;;6.13;;
14282;SDS011;7225;59.282;18.344;2022-12-18T08:41:22;10.00;;;6.13;;
14282;SDS011;7225;59.282;18.344;2022-12-18T08:43:50;8.80;;;6.17;;
14282;SDS011;7225;59.282;18.344;2022-12-18T08:46:38;10.00;;;6.60;;
14282;SDS011;7225;59.282;18.344;2022-12-18T08:49:10;10.23;;;7.07;;
14282;SDS011;7225;59.282;18.344;2022-12-18T08:51:38;11.50;;;6.73;;
14282;SDS011;7225;59.282;18.344;2022-12-18T08:54:07;11.37;;;6.97;;
14282;SDS011;7225;59.282;18.344;2022-12-18T08:56:39;9.90;;;6.00;;
14282;SDS011;7225;59.282;18.344;2022-12-18T08:59:08;11.57;;;8.30;;
14282;SDS011;7225;59.282;18.344;2022-12-18T09:01:47;10.17;;;8.07;;
14282;SDS011;7225;59.282;18.344;2022-12-18T09:04:16;9.67;;;6.83;;
14282;SDS011;7225;59.282;18.344;2022-12-18T09:06:43;11.40;;;7.00;;
14282;SDS011;7225;59.282;18.344;2022-12-18T09:09:11;9.57;;;6.87;;
14282;SDS011;7225;59.282;18.344;2022-12-18T09:11:40;11.03;;;6.10;;
14282;SDS011;7225;59.282;18.344;2022-12-18T09:14:10;9.97;;;5.80;;
14282;SDS011;7225;59.282;18.344;2022-12-18T09:16:37;11.53;;;8.23;;
14282;SDS011;7225;59.282;18.344;2022-12-18T09:19:06;11.30;;;6.80;;
14282;SDS011;7225;59.282;18.344;2022-12-18T09:21:34;10.03;;;6.40;;
14282;SDS011;7225;59.282;18.344;2022-12-18T09:24:14;10.77;;;8.00;;
14282;SDS011;7225;59.282;18.344;2022-12-18T09:26:43;10.90;;;6.30;;
14282;SDS011;7225;59.282;18.344;2022-12-18T09:29:14;10.97;;;7.17;;
14282;SDS011;7225;59.282;18.344;2022-12-18T09:31:45;12.37;;;8.10;;
14282;SDS011;7225;59.282;18.344;2022-12-18T09:34:16;9.53;;;6.93;;
14282;SDS011;7225;59.282;18.344;2022-12-18T09:36:44;11.60;;;7.80;;
14282;SDS011;7225;59.282;18.344;2022-12-18T09:39:14;13.47;;;8.30;;
14282;SDS011;7225;59.282;18.344;2022-12-18T09:41:48;11.97;;;7.80;;
14282;SDS011;7225;59.282;18.344;2022-12-18T09:44:28;14.93;;;6.47;;
14282;SDS011;7225;59.282;18.344;2022-12-18T09:47:08;9.20;;;6.00;;
14282;SDS011;7225;59.282;18.344;2022-12-18T09:50:04;9.23;;;5.43;;
14282;SDS011;7225;59.282;18.344;2022-12-18T09:52:44;8.50;;;5.73;;
14282;SDS011;7225;59.282;18.344;2022-12-18T09:55:33;7.93;;;5.37;;
14282;SDS011;7225;59.282;18.344;2022-12-18T09:58:06;9.43;;;5.60;;
14282;SDS011;7225;59.282;18.344;2022-12-18T10:00:42;7.67;;;5.50;;
14282;SDS011;7225;59.282;18.344;2022-12-18T10:03:12;8.10;;;5.47;;
14282;SDS011;7225;59.282;18.344;2022-12-18T10:05:45;9.17;;;5.53;;
14282;SDS011;7225;59.282;18.344;2022-12-18T10:11:27;10.13;;;5.33;;
14282;SDS011;7225;59.282;18.344;2022-12-18T10:14:12;8.07;;;5.27;;
14282;SDS011;7225;59.282;18.344;2022-12-18T10:28:14;9.37;;;5.33;;
14282;SDS011;7225;59.282;18.344;2022-12-18T10:30:45;7.87;;;5.63;;
14282;SDS011;7225;59.282;18.344;2022-12-18T10:33:18;9.03;;;5.20;;
14282;SDS011;7225;59.282;18.344;2022-12-18T10:35:50;6.77;;;4.37;;
14282;SDS011;7225;59.282;18.344;2022-12-18T10:38:24;9.33;;;5.63;;
14282;SDS011;7225;59.282;18.344;2022-12-18T10:48:27;7.93;;;5.03;;
14282;SDS011;7225;59.282;18.344;2022-12-18T10:50:56;9.87;;;5.63;;
14282;SDS011;7225;59.282;18.344;2022-12-18T10:53:41;8.87;;;5.60;;
14282;SDS011;7225;59.282;18.344;2022-12-18T10:56:12;7.90;;;5.13;;
14282;SDS011;7225;59.282;18.344;2022-12-18T10:59:00;7.57;;;5.10;;
14282;SDS011;7225;59.282;18.344;2022-12-18T11:01:45;8.93;;;5.33;;
14282;SDS011;7225;59.282;18.344;2022-12-18T11:04:27;8.13;;;4.13;;
14282;SDS011;7225;59.282;18.344;2022-12-18T11:06:59;7.27;;;4.93;;
14282;SDS011;7225;59.282;18.344;2022-12-18T11:09:35;7.37;;;5.47;;
14282;SDS011;7225;59.282;18.344;2022-12-18T11:14:42;7.37;;;5.10;;
14282;SDS011;7225;59.282;18.344;2022-12-18T11:20:02;8.30;;;5.03;;
14282;SDS011;7225;59.282;18.344;2022-12-18T11:22:59;9.07;;;5.97;;
14282;SDS011;7225;59.282;18.344;2022-12-18T11:25:29;7.97;;;4.70;;
14282;SDS011;7225;59.282;18.344;2022-12-18T11:28:01;9.87;;;4.80;;
14282;SDS011;7225;59.282;18.344;2022-12-18T11:33:39;8.43;;;5.20;;
14282;SDS011;7225;59.282;18.344;2022-12-18T11:36:33;9.07;;;5.70;;
14282;SDS011;7225;59.282;18.344;2022-12-18T11:39:17;7.43;;;4.93;;
14282;SDS011;7225;59.282;18.344;2022-12-18T11:41:52;8.83;;;5.20;;
14282;SDS011;7225;59.282;18.344;2022-12-18T11:47:12;7.57;;;5.80;;
14282;SDS011;7225;59.282;18.344;2022-12-18T11:50:02;6.90;;;4.87;;
14282;SDS011;7225;59.282;18.344;2022-12-18T11:52:39;11.60;;;5.13;;
14282;SDS011;7225;59.282;18.344;2022-12-18T11:55:56;8.70;;;5.03;;
14282;SDS011;7225;59.282;18.344;2022-12-18T11:58:18;9.97;;;5.97;;
14282;SDS011;7225;59.282;18.344;2022-12-18T12:01:24;6.83;;;4.90;;
14282;SDS011;7225;59.282;18.344;2022-12-18T12:09:27;5.77;;;4.73;;
14282;SDS011;7225;59.282;18.344;2022-12-18T12:15:30;7.93;;;5.07;;
14282;SDS011;7225;59.282;18.344;2022-12-18T12:23:53;8.30;;;5.03;;
14282;SDS011;7225;59.282;18.344;2022-12-18T12:32:25;8.03;;;4.80;;
14282;SDS011;7225;59.282;18.344;2022-12-18T12:40:24;8.57;;;4.93;;
14282;SDS011;7225;59.282;18.344;2022-12-18T12:43:19;7.57;;;5.20;;
14282;SDS011;7225;59.282;18.344;2022-12-18T12:45:56;7.77;;;5.03;;
14282;SDS011;7225;59.282;18.344;2022-12-18T12:53:48;10.03;;;5.10;;
14282;SDS011;7225;59.282;18.344;2022-12-18T12:56:18;7.27;;;4.67;;
14282;SDS011;7225;59.282;18.344;2022-12-18T13:07:06;8.20;;;4.80;;
14282;SDS011;7225;59.282;18.344;2022-12-18T13:15:27;8.47;;;4.70;;
14282;SDS011;7225;59.282;18.344;2022-12-18T13:20:46;7.13;;;5.33;;
14282;SDS011;7225;59.282;18.344;2022-12-18T13:23:39;5.83;;;4.43;;
14282;SDS011;7225;59.282;18.344;2022-12-18T13:36:55;7.27;;;4.17;;
14282;SDS011;7225;59.282;18.344;2022-12-18T13:39:33;8.53;;;4.53;;
14282;SDS011;7225;59.282;18.344;2022-12-18T13:44:36;7.00;;;4.17;;
14282;SDS011;7225;59.282;18.344;2022-12-18T13:49:57;6.50;;;4.23;;
14282;SDS011;7225;59.282;18.344;2022-12-18T13:52:34;6.07;;;4.10;;
14282;SDS011;7225;59.282;18.344;2022-12-18T13:55:06;6.37;;;3.67;;
14282;SDS011;7225;59.282;18.344;2022-12-18T13:57:41;8.30;;;4.00;;
14282;SDS011;7225;59.282;18.344;2022-12-18T14:00:28;8.27;;;3.93;;
14282;SDS011;7225;59.282;18.344;2022-12-18T14:02:56;5.23;;;3.37;;
14282;SDS011;7225;59.282;18.344;2022-12-18T14:05:36;7.57;;;4.23;;
14282;SDS011;7225;59.282;18.344;2022-12-18T14:08:13;6.80;;;3.67;;
14282;SDS011;7225;59.282;18.344;2022-12-18T14:10:43;11.23;;;4.40;;
14282;SDS011;7225;59.282;18.344;2022-12-18T14:13:59;6.63;;;3.37;;
14282;SDS011;7225;59.282;18.344;2022-12-18T14:16:11;4.63;;;3.33;;
14282;SDS011;7225;59.282;18.344;2022-12-18T14:18:53;8.97;;;4.07;;
14282;SDS011;7225;59.282;18.344;2022-12-18T14:21:34;6.57;;;2.60;;
14282;SDS011;7225;59.282;18.344;2022-12-18T14:24:21;5.53;;;3.77;;
14282;SDS011;7225;59.282;18.344;2022-12-18T14:26:50;6.50;;;3.53;;
14282;SDS011;7225;59.282;18.344;2022-12-18T14:29:19;7.17;;;3.57;;
14282;SDS011;7225;59.282;18.344;2022-12-18T14:32:07;9.27;;;3.50;;
14282;SDS011;7225;59.282;18.344;2022-12-18T14:34:46;7.10;;;3.53;;
14282;SDS011;7225;59.282;18.344;2022-12-18T14:37:16;4.93;;;3.27;;
14282;SDS011;7225;59.282;18.344;2022-12-18T14:42:38;5.37;;;2.77;;
14282;SDS011;7225;59.282;18.344;2022-12-18T14:48:11;5.00;;;3.20;;
14282;SDS011;7225;59.282;18.344;2022-12-18T14:50:44;6.20;;;3.47;;
14282;SDS011;7225;59.282;18.344;2022-12-18T14:53:56;5.10;;;2.47;;
14282;SDS011;7225;59.282;18.344;2022-12-18T14:56:31;8.03;;;3.10;;
14282;SDS011;7225;59.282;18.344;2022-12-18T14:59:03;4.47;;;2.70;;
14282;SDS011;7225;59.282;18.344;2022-12-18T15:01:47;5.43;;;2.70;;
14282;SDS011;7225;59.282;18.344;2022-12-18T15:04:33;4.03;;;2.23;;
14282;SDS011;7225;59.282;18.344;2022-12-18T15:10:31;4.17;;;2.60;;
14282;SDS011;7225;59.282;18.344;2022-12-18T15:18:05;3.63;;;2.53;;
14282;SDS011;7225;59.282;18.344;2022-12-18T15:20:48;6.37;;;3.03;;
14282;SDS011;7225;59.282;18.344;2022-12-18T15:23:20;5.73;;;2.83;;
14282;SDS011;7225;59.282;18.344;2022-12-18T15:26:04;4.90;;;3.23;;
14282;SDS011;7225;59.282;18.344;2022-12-18T15:28:43;8.37;;;3.97;;
14282;SDS011;7225;59.282;18.344;2022-12-18T15:31:21;6.90;;;3.30;;
14282;SDS011;7225;59.282;18.344;2022-12-18T15:36:22;4.47;;;2.53;;
14282;SDS011;7225;59.282;18.344;2022-12-18T15:38:54;7.10;;;3.07;;
14282;SDS011;7225;59.282;18.344;2022-12-18T15:41:33;5.10;;;2.87;;
14282;SDS011;7225;59.282;18.344;2022-12-18T15:44:03;4.00;;;2.53;;
14282;SDS011;7225;59.282;18.344;2022-12-18T15:46:48;4.13;;;2.23;;
14282;SDS011;7225;59.282;18.344;2022-12-18T15:49:15;4.30;;;2.50;;
14282;SDS011;7225;59.282;18.344;2022-12-18T15:51:42;4.87;;;2.40;;
14282;SDS011;7225;59.282;18.344;2022-12-18T15:54:13;6.20;;;2.20;;
14282;SDS011;7225;59.282;18.344;2022-12-18T15:57:02;5.83;;;2.33;;
14282;SDS011;7225;59.282;18.344;2022-12-18T15:59:47;5.97;;;2.33;;
14282;SDS011;7225;59.282;18.344;2022-12-18T16:02:15;4.77;;;2.07;;
14282;SDS011;7225;59.282;18.344;2022-12-18T16:04:46;4.73;;;1.87;;
14282;SDS011;7225;59.282;18.344;2022-12-18T16:07:13;2.17;;;1.60;;
14282;SDS011;7225;59.282;18.344;2022-12-18T16:09:45;3.70;;;1.77;;
14282;SDS011;7225;59.282;18.344;2022-12-18T16:12:20;5.77;;;2.10;;
14282;SDS011;7225;59.282;18.344;2022-12-18T16:14:50;3.27;;;1.60;;
14282;SDS011;7225;59.282;18.344;2022-12-18T16:17:19;2.17;;;1.60;;
14282;SDS011;7225;59.282;18.344;2022-12-18T16:19:47;3.07;;;2.10;;
14282;SDS011;7225;59.282;18.344;2022-12-18T16:22:22;4.43;;;2.13;;
14282;SDS011;7225;59.282;18.344;2022-12-18T16:24:53;4.73;;;1.73;;
14282;SDS011;7225;59.282;18.344;2022-12-18T16:27:24;4.57;;;2.00;;
14282;SDS011;7225;59.282;18.344;2022-12-18T16:29:51;5.27;;;2.10;;
14282;SDS011;7225;59.282;18.344;2022-12-18T16:32:20;7.30;;;2.90;;
14282;SDS011;7225;59.282;18.344;2022-12-18T16:34:50;3.83;;;1.50;;
14282;SDS011;7225;59.282;18.344;2022-12-18T16:37:18;1.83;;;1.50;;
14282;SDS011;7225;59.282;18.344;2022-12-18T16:39:46;2.40;;;1.70;;
14282;SDS011;7225;59.282;18.344;2022-12-18T16:42:13;7.20;;;1.97;;
14282;SDS011;7225;59.282;18.344;2022-12-18T16:44:46;3.33;;;1.83;;
14282;SDS011;7225;59.282;18.344;2022-12-18T16:47:17;5.50;;;2.00;;
14282;SDS011;7225;59.282;18.344;2022-12-18T16:49:45;5.57;;;2.07;;
14282;SDS011;7225;59.282;18.344;2022-12-18T16:52:13;13.47;;;1.77;;
14282;SDS011;7225;59.282;18.344;2022-12-18T16:54:40;7.40;;;2.20;;
14282;SDS011;7225;59.282;18.344;2022-12-18T16:57:09;3.97;;;1.90;;
14282;SDS011;7225;59.282;18.344;2022-12-18T16:59:40;3.00;;;1.83;;
14282;SDS011;7225;59.282;18.344;2022-12-18T17:02:15;4.43;;;2.20;;
14282;SDS011;7225;59.282;18.344;2022-12-18T17:04:54;3.53;;;1.47;;
14282;SDS011;7225;59.282;18.344;2022-12-18T17:07:24;4.17;;;1.80;;
14282;SDS011;7225;59.282;18.344;2022-12-18T17:09:52;3.20;;;1.50;;
14282;SDS011;7225;59.282;18.344;2022-12-18T17:12:21;6.40;;;1.70;;
14282;SDS011;7225;59.282;18.344;2022-12-18T17:14:50;3.30;;;1.40;;
14282;SDS011;7225;59.282;18.344;2022-12-18T17:17:19;5.00;;;1.80;;
14282;SDS011;7225;59.282;18.344;2022-12-18T17:19:50;5.13;;;1.77;;
14282;SDS011;7225;59.282;18.344;2022-12-18T17:22:19;4.40;;;2.00;;
14282;SDS011;7225;59.282;18.344;2022-12-18T17:24:48;8.47;;;2.57;;
14282;SDS011;7225;59.282;18.344;2022-12-18T17:27:16;6.97;;;2.77;;
14282;SDS011;7225;59.282;18.344;2022-12-18T17:29:44;4.03;;;2.63;;
14282;SDS011;7225;59.282;18.344;2022-12-18T17:32:15;9.37;;;2.67;;
14282;SDS011;7225;59.282;18.344;2022-12-18T17:34:43;6.33;;;3.33;;
14282;SDS011;7225;59.282;18.344;2022-12-18T17:37:11;4.63;;;2.37;;